Terminal Aerodrome Forecast
Issued by NWS

Home | Current Version | Previous Version | Text Only | Print | Product List | Glossary On
Versions: 1 2 3 4 5 6 7 8 9 10 11 12
000
FTUS45 KRIW 182300
TAFRKS
TAF
KRKS 182332Z 1900/1924 21012G20KT P6SM FEW120 SCT250
     FM190200 22006KT P6SM SCT100 BKN150
     FM190900 32008KT P6SM VCSH BKN100
     FM191400 27008KT P6SM BKN100
     FM192000 30011KT P6SM BKN100=

USA.gov is the U.S. government's official web portal to all federal, state and local government web resources and services.